Kezdőlap
METAR-TAF:

METAR-TAF

Repülőterek :

Harbin, Kína

földrajzi szélesség: 45-45N, földrajzi hosszúság: 126-46E, magasság: 143 m

Jelenlegi meteorológiai megfigyelések

A jelentés 32 perccel ezelõtt készült, 14:00 UTC
Különbözõ irányokból fújó szél 2 kt
Hőmérséklet -21°C
Páratartalom 77%
Légköri nyomás 1033 hPa
Látótávolság: 7000 m

METAR: ZYHB 251400Z VRB01MPS 7000 NSC M21/M24 Q1033 NOSIG

Idő: 22:32 (14:32 UTC)

Előrejelzés

A jelentés 5 órával és 25 perccel ezelõtt készült, 09:07 UTC
Az előrejelzés 25-én 12 óra UTC és 26-én 12 óra UTC között érvényes
Dél-délnyugati szél 6 kt
Látótávolság: 6000 m
Kevés felhő 3000 lábon
25-én 12 óra UTC és 25-én 18 óra UTC között ideiglenes
Látótávolság: 2000 m
füst

TAF: ZYHB 250907Z 2512/2612 21003MPS 6000 FEW030 TXM08/2606Z TNM25/2521Z TEMPO 2512/2518 2000 FU

Meteorológiai megfigyelések és előrejelzések több, mint 4000 repülőtéren (METAR és TAF jelentéseket).

A térképen piros és sárga pontok jelzik az elérhető meteorológiai állomásokat.

Mozgassa az egeret a pont fölött, hogy megjelenjen az állomás neve.

Azután kattintson az időjárási megfigyelések és előrejelzések megtekintéséhez.

A térkép megváltoztatása: kattintson a fekete keresztel jelölt zöld gombra ráközelítéshez, a vonallal jelölt zöld gombra távolításhoz, vagy a zöld nyilakra a szomszédos térképek eléréséhez.


METAR-TAF: